Time;durP1;ratioP1;P1;durP2;ratioP2;P2;SDS_P1;SDS_P2;PMS_P1;PMS_P2;Temp;Humidity;BMP_temperature;BMP_pressure;BME280_temperature;BME280_humidity;BME280_pressure;Samples;Min_cycle;Max_cycle;Signal;HPM_P1;HPM_P2
2022/11/27 00:02:08;;;;;;;4.85;4.45;;;-0.50;99.90;;;;;;4686160;30;20598;-84
2022/11/27 00:04:36;;;;;;;11.00;4.25;;;-0.60;99.90;;;;;;4671485;30;20405;-82
2022/11/27 00:07:04;;;;;;;5.35;4.30;;;-0.70;99.90;;;;;;4655916;30;20072;-83
2022/11/27 00:09:32;;;;;;;6.00;5.43;;;-0.70;99.90;;;;;;4671712;30;20053;-82
2022/11/27 00:11:59;;;;;;;4.55;3.53;;;-0.70;99.90;;;;;;4671547;30;20060;-83
2022/11/27 00:14:27;;;;;;;5.32;4.88;;;-0.80;99.90;;;;;;4680910;30;20045;-81
2022/11/27 00:16:54;;;;;;;7.65;5.80;;;-0.80;99.90;;;;;;4671445;30;20050;-82
2022/11/27 00:19:22;;;;;;;9.10;4.07;;;-0.80;99.90;;;;;;4700655;30;20057;-82
2022/11/27 00:21:49;;;;;;;7.30;5.45;;;-0.80;99.90;;;;;;4701432;30;20075;-81
2022/11/27 00:24:56;;;;;;;5.82;5.18;;;-0.80;99.90;;;;;;4700909;30;20064;-82
2022/11/27 00:27:23;;;;;;;7.15;4.70;;;-0.70;99.90;;;;;;4687082;30;20060;-81
2022/11/27 00:29:51;;;;;;;6.75;4.97;;;-0.70;99.90;;;;;;4699328;30;20397;-82
2022/11/27 00:32:18;;;;;;;25.45;5.43;;;-0.60;99.90;;;;;;4670793;30;20056;-83
2022/11/27 00:34:45;;;;;;;5.40;4.63;;;-0.70;99.90;;;;;;4683836;30;20050;-82
2022/11/27 00:37:13;;;;;;;14.80;6.22;;;-0.70;99.90;;;;;;4687038;30;20060;-83
2022/11/27 00:39:41;;;;;;;13.20;5.57;;;-0.70;99.90;;;;;;4701467;30;20042;-82
2022/11/27 00:42:08;;;;;;;33.88;7.30;;;-0.70;99.90;;;;;;4688644;30;20069;-83
2022/11/27 00:44:35;;;;;;;9.75;5.20;;;-0.70;99.90;;;;;;4669940;30;20072;-83
2022/11/27 00:47:03;;;;;;;98.00;9.32;;;-0.80;99.90;;;;;;4678689;30;20064;-82
2022/11/27 00:49:31;;;;;;;7.88;5.72;;;-0.80;99.90;;;;;;4681319;30;20064;-82
2022/11/27 00:51:58;;;;;;;9.82;5.32;;;-1.00;99.90;;;;;;4670459;30;20053;-82
2022/11/27 00:54:29;;;;;;;17.30;3.95;;;-1.10;99.90;;;;;;4714588;30;20060;-83
2022/11/27 00:56:56;;;;;;;4.77;4.23;;;-1.10;99.90;;;;;;4716763;30;20045;-82
2022/11/27 00:59:24;;;;;;;6.68;5.60;;;-1.10;99.90;;;;;;4699483;30;20394;-82
2022/11/27 01:01:51;;;;;;;11.50;6.25;;;-1.10;99.90;;;;;;4696287;30;20088;-82
2022/11/27 01:04:19;;;;;;;18.83;5.80;;;-1.10;99.90;;;;;;4713741;30;20429;-82
2022/11/27 01:06:46;;;;;;;7.72;5.75;;;-1.20;99.90;;;;;;4705794;30;20053;-82
2022/11/27 01:09:14;;;;;;;9.45;5.25;;;-1.20;99.90;;;;;;4696235;30;20053;-82
2022/11/27 01:11:42;;;;;;;7.95;5.15;;;-1.10;99.90;;;;;;4702996;30;20053;-82
2022/11/27 01:14:15;;;;;;;7.13;6.53;;;-1.20;99.90;;;;;;4707323;30;20052;-82
2022/11/27 01:16:43;;;;;;;7.20;5.50;;;-1.20;99.90;;;;;;4676885;30;20061;-82
2022/11/27 01:19:12;;;;;;;4.85;4.40;;;-1.20;99.90;;;;;;4669287;30;20537;-82
2022/11/27 01:21:40;;;;;;;7.45;6.00;;;-1.20;99.90;;;;;;4657986;30;20497;-82
2022/11/27 01:24:13;;;;;;;5.18;4.35;;;-1.20;99.90;;;;;;4682251;30;20046;-82
2022/11/27 01:26:42;;;;;;;6.70;4.95;;;-1.20;99.90;;;;;;4673442;30;20061;-82
2022/11/27 01:29:10;;;;;;;5.75;5.25;;;-1.20;99.90;;;;;;4699853;30;20038;-82
2022/11/27 01:31:39;;;;;;;9.63;5.82;;;-1.10;99.90;;;;;;4683038;30;20057;-82
2022/11/27 01:34:13;;;;;;;7.50;5.95;;;-1.00;99.90;;;;;;4707583;30;20061;-82
2022/11/27 01:36:40;;;;;;;9.63;4.70;;;-1.00;99.90;;;;;;4683091;30;20057;-82
2022/11/27 01:39:15;;;;;;;5.05;4.28;;;-1.00;99.90;;;;;;4688834;30;20057;-82
2022/11/27 01:41:43;;;;;;;5.25;4.78;;;-1.00;99.90;;;;;;4712216;30;20053;-82
2022/11/27 01:44:22;;;;;;;66.15;9.27;;;-0.90;99.90;;;;;;4699219;30;20812;-82
2022/11/27 01:47:04;;;;;;;6.50;5.50;;;-0.90;99.90;;;;;;4699572;30;20049;-82
2022/11/27 01:49:41;;;;;;;5.80;5.00;;;-0.90;99.90;;;;;;4682999;30;20049;-82
2022/11/27 01:52:14;;;;;;;10.98;5.28;;;-0.90;99.90;;;;;;4685635;30;20045;-82
2022/11/27 01:55:11;;;;;;;13.45;6.15;;;-0.90;99.90;;;;;;4699790;30;20054;-82
2022/11/27 01:57:46;;;;;;;6.30;5.70;;;-1.00;99.90;;;;;;4645628;30;20061;-82
2022/11/27 02:00:15;;;;;;;4.70;4.25;;;-1.00;99.90;;;;;;4704125;30;20053;-82
2022/11/27 02:02:43;;;;;;;6.47;5.65;;;-1.00;99.90;;;;;;4704491;30;20064;-82
2022/11/27 02:05:16;;;;;;;10.35;6.95;;;-0.90;99.90;;;;;;4682851;30;20524;-82
2022/11/27 02:07:45;;;;;;;7.97;6.15;;;-0.90;99.90;;;;;;4698580;30;20374;-82
2022/11/27 02:10:14;;;;;;;12.77;5.88;;;-0.90;99.90;;;;;;4683779;30;20057;-82
2022/11/27 02:13:22;;;;;;;5.53;5.07;;;-0.90;99.90;;;;;;4689963;30;20374;-82
2022/11/27 02:15:54;;;;;;;7.57;5.63;;;-0.90;99.90;;;;;;4615800;31;20101;-82
2022/11/27 02:18:42;;;;;;;13.38;5.38;;;-0.90;99.90;;;;;;4628059;31;20062;-82
2022/11/27 02:21:20;;;;;;;42.35;5.93;;;-0.90;99.90;;;;;;4663236;30;20418;-82
2022/11/27 02:24:56;;;;;;;6.32;5.05;;;-0.90;99.90;;;;;;4707939;30;20057;-82
2022/11/27 02:27:41;;;;;;;10.40;6.57;;;-0.90;99.90;;;;;;4605783;31;20060;-82
2022/11/27 02:30:09;;;;;;;7.25;5.55;;;-1.00;99.90;;;;;;4594366;31;20064;-82
2022/11/27 02:33:01;;;;;;;4.75;4.30;;;-1.10;99.90;;;;;;4661790;30;20058;-82
2022/11/27 02:35:32;;;;;;;11.75;5.32;;;-1.00;99.90;;;;;;4669231;30;20050;-82
2022/11/27 02:38:13;;;;;;;10.98;6.03;;;-1.10;99.90;;;;;;4680126;30;20496;-82
2022/11/27 02:41:07;;;;;;;9.73;5.60;;;-1.00;99.90;;;;;;4666307;30;20065;-82
2022/11/27 02:43:41;;;;;;;11.00;5.05;;;-1.00;99.90;;;;;;4675880;30;20729;-82
2022/11/27 02:46:11;;;;;;;11.10;6.70;;;-1.00;99.90;;;;;;4683584;30;20061;-82
2022/11/27 02:48:47;;;;;;;14.20;7.20;;;-1.00;99.90;;;;;;4698730;30;20057;-82
2022/11/27 02:51:18;;;;;;;32.67;6.53;;;-1.00;99.90;;;;;;4683421;30;20059;-82
2022/11/27 02:53:51;;;;;;;;;;;-1.10;99.90;;;;;;4673009;30;20064;-82
2022/11/27 02:56:27;;;;;;;6.10;4.85;;;-1.10;99.90;;;;;;4683992;30;20362;-82
2022/11/27 02:58:58;;;;;;;6.80;5.40;;;-1.00;99.90;;;;;;4671344;30;20080;-82
2022/11/27 03:01:32;;;;;;;5.93;4.28;;;-1.00;99.90;;;;;;4659331;30;20057;-82
2022/11/27 03:04:03;;;;;;;8.10;4.43;;;-1.00;99.90;;;;;;4689790;30;20041;-82
2022/11/27 03:06:37;;;;;;;8.15;7.30;;;-1.00;99.90;;;;;;4699126;30;20058;-81
2022/11/27 03:09:09;;;;;;;5.63;5.13;;;-1.00;99.90;;;;;;4669758;30;20065;-81
2022/11/27 03:11:38;;;;;;;9.63;5.57;;;-1.00;99.90;;;;;;4691671;30;20046;-82
2022/11/27 03:14:07;;;;;;;8.95;6.05;;;-1.00;99.90;;;;;;4700810;30;20092;-82
2022/11/27 03:17:05;;;;;;;10.75;5.10;;;-0.90;99.90;;;;;;4711817;30;20054;-82
2022/11/27 03:19:49;;;;;;;44.03;8.18;;;-0.80;99.90;;;;;;4668443;30;20060;-82
2022/11/27 03:22:16;;;;;;;10.00;5.80;;;-0.90;99.90;;;;;;4687263;30;20069;-82
2022/11/27 03:25:23;;;;;;;26.73;8.05;;;-0.80;99.90;;;;;;4689357;30;20046;-82
2022/11/27 03:28:03;;;;;;;7.88;5.18;;;-0.80;99.90;;;;;;4690525;30;20068;-81
2022/11/27 03:30:31;;;;;;;8.82;5.30;;;-0.80;99.90;;;;;;4701305;30;20068;-82
2022/11/27 03:33:00;;;;;;;17.17;6.25;;;-0.90;99.90;;;;;;4709436;30;20667;-82
2022/11/27 03:35:27;;;;;;;8.10;4.90;;;-0.90;99.90;;;;;;4694214;30;20123;-82
2022/11/27 03:37:55;;;;;;;5.53;4.95;;;-0.90;99.90;;;;;;4693319;30;20065;-82
2022/11/27 03:40:53;;;;;;;6.32;5.50;;;-0.80;99.90;;;;;;4715596;30;20049;-82
2022/11/27 03:43:26;;;;;;;9.82;5.47;;;-0.80;99.90;;;;;;4693868;30;20061;-81
2022/11/27 03:46:03;;;;;;;44.85;6.97;;;-0.80;99.90;;;;;;4684909;30;20057;-82
2022/11/27 03:48:43;;;;;;;6.03;5.43;;;-0.80;99.90;;;;;;4690951;30;20050;-82
2022/11/27 03:51:24;;;;;;;4.22;3.75;;;-0.80;99.90;;;;;;4688365;30;20060;-81
2022/11/27 03:53:55;;;;;;;8.55;6.45;;;-0.90;99.90;;;;;;4689448;30;20041;-82
2022/11/27 03:56:29;;;;;;;;;;;-1.00;99.90;;;;;;4680508;30;20049;-82
2022/11/27 03:59:04;;;;;;;4.95;4.53;;;-1.00;99.90;;;;;;4672969;30;20390;-82
2022/11/27 04:01:31;;;;;;;5.18;4.68;;;-1.00;99.90;;;;;;4671374;30;20057;-81
2022/11/27 04:03:59;;;;;;;36.88;5.63;;;-1.00;99.90;;;;;;4688740;30;20049;-81
2022/11/27 04:06:26;;;;;;;4.88;4.25;;;-1.00;99.90;;;;;;4697245;30;20058;-82
2022/11/27 04:08:54;;;;;;;10.20;5.50;;;-1.10;99.90;;;;;;4686024;30;20045;-82
2022/11/27 04:11:21;;;;;;;5.65;5.18;;;-1.20;99.90;;;;;;4678737;30;20068;-81
2022/11/27 04:13:50;;;;;;;58.60;7.70;;;-1.20;99.90;;;;;;4688755;30;20412;-82
2022/11/27 04:16:18;;;;;;;5.88;5.28;;;-1.30;99.90;;;;;;4691703;30;20057;-81
2022/11/27 04:18:46;;;;;;;7.20;6.53;;;-1.30;99.90;;;;;;4683271;30;20054;-81
2022/11/27 04:21:13;;;;;;;52.63;8.05;;;-1.30;99.90;;;;;;4681260;30;20053;-82
2022/11/27 04:23:40;;;;;;;10.70;5.97;;;-1.30;99.90;;;;;;4711118;30;20056;-82
2022/11/27 04:30:25;;;;;;;16.23;4.80;;;-1.40;99.90;;;;;;4840633;25;20061;-82
2022/11/27 04:32:52;;;;;;;11.23;5.50;;;-1.40;99.90;;;;;;4717800;30;20064;-81
2022/11/27 04:35:19;;;;;;;7.45;5.25;;;-1.40;99.90;;;;;;4718730;30;20398;-81
2022/11/27 04:37:47;;;;;;;135.13;11.57;;;-1.30;99.90;;;;;;4717398;30;20392;-81
2022/11/27 04:40:14;;;;;;;18.48;6.05;;;-1.40;99.90;;;;;;4718296;30;20217;-82
2022/11/27 04:42:41;;;;;;;12.77;5.53;;;-1.40;99.90;;;;;;4718546;30;20484;-81
2022/11/27 04:45:09;;;;;;;17.40;5.10;;;-1.50;99.90;;;;;;4718082;30;20402;-82
2022/11/27 04:47:36;;;;;;;11.80;5.13;;;-1.60;99.90;;;;;;4717547;30;20053;-82
2022/11/27 04:50:04;;;;;;;5.50;4.90;;;-1.60;99.90;;;;;;4718357;30;20061;-81
2022/11/27 04:52:32;;;;;;;23.45;4.80;;;-1.60;99.90;;;;;;4717833;30;20049;-81
2022/11/27 04:55:31;;;;;;;6.68;4.90;;;-1.70;99.90;;;;;;4699960;30;20057;-82
2022/11/27 04:57:59;;;;;;;5.00;4.50;;;-1.70;99.90;;;;;;4669318;30;20061;-81
2022/11/27 05:00:26;;;;;;;62.28;6.85;;;-1.70;99.90;;;;;;4704313;30;20412;-82
2022/11/27 05:02:54;;;;;;;8.95;4.60;;;-1.70;99.90;;;;;;4716730;30;20061;-82
2022/11/27 05:05:21;;;;;;;11.20;5.30;;;-1.80;99.90;;;;;;4687793;30;20065;-82
2022/11/27 05:07:48;;;;;;;20.55;5.80;;;-1.90;99.90;;;;;;4701961;30;20049;-81
2022/11/27 05:10:16;;;;;;;10.75;4.63;;;-2.00;99.90;;;;;;4688457;30;20065;-82
2022/11/27 05:12:44;;;;;;;14.30;4.97;;;-2.00;99.90;;;;;;4710940;30;20053;-82
2022/11/27 05:15:11;;;;;;;8.88;5.85;;;-2.00;99.90;;;;;;4717835;30;20056;-82
2022/11/27 05:17:39;;;;;;;6.13;5.15;;;-2.10;99.90;;;;;;4687817;30;20064;-82
2022/11/27 05:20:07;;;;;;;23.08;6.72;;;-2.10;99.90;;;;;;4716729;30;20075;-81
2022/11/27 05:22:34;;;;;;;6.50;5.90;;;-2.10;99.90;;;;;;4673106;30;20068;-82
2022/11/27 05:25:45;;;;;;;15.25;5.10;;;-2.00;99.90;;;;;;4688047;30;20515;-82
2022/11/27 05:28:12;;;;;;;63.75;9.77;;;-2.00;99.90;;;;;;4716552;30;20403;-82
2022/11/27 05:30:39;;;;;;;16.85;5.10;;;-2.00;99.90;;;;;;4702025;30;20068;-82
2022/11/27 05:33:07;;;;;;;14.50;5.43;;;-2.00;99.90;;;;;;4701243;30;20052;-81
2022/11/27 05:35:35;;;;;;;69.55;9.60;;;-2.00;99.90;;;;;;4700693;30;20057;-82
2022/11/27 05:38:02;;;;;;;10.55;5.53;;;-2.00;99.90;;;;;;4702306;30;20053;-82
2022/11/27 05:40:30;;;;;;;10.40;6.00;;;-2.10;99.90;;;;;;4701357;30;20740;-82
2022/11/27 05:42:57;;;;;;;27.85;7.43;;;-2.10;99.90;;;;;;4701235;30;20053;-82
2022/11/27 05:45:24;;;;;;;18.92;7.00;;;-2.00;99.90;;;;;;4701987;30;20056;-82
2022/11/27 05:47:52;;;;;;;23.50;5.90;;;-2.00;99.90;;;;;;4716125;30;20404;-81
2022/11/27 05:50:19;;;;;;;6.15;5.25;;;-1.90;99.90;;;;;;4701803;30;20064;-82
2022/11/27 05:52:46;;;;;;;18.67;5.82;;;-1.90;99.90;;;;;;4686675;30;20056;-82
2022/11/27 05:55:46;;;;;;;15.70;5.88;;;-1.80;99.90;;;;;;4673006;30;20053;-82
2022/11/27 05:58:13;;;;;;;40.22;4.90;;;-2.00;99.90;;;;;;4715801;30;20053;-81
2022/11/27 06:00:40;;;;;;;26.02;5.30;;;-1.90;99.90;;;;;;4698565;30;20054;-82
2022/11/27 06:03:08;;;;;;;8.10;5.35;;;-1.90;99.90;;;;;;4716094;30;20056;-82
2022/11/27 06:05:39;;;;;;;40.22;6.78;;;-1.90;99.90;;;;;;4717569;30;20057;-82
2022/11/27 06:08:06;;;;;;;6.38;5.70;;;-1.80;99.90;;;;;;4716406;30;20064;-82
2022/11/27 06:10:33;;;;;;;17.30;6.60;;;-1.80;99.90;;;;;;4716177;30;20061;-82
2022/11/27 06:13:01;;;;;;;8.98;4.78;;;-1.80;99.90;;;;;;4716274;30;20420;-82
2022/11/27 06:15:28;;;;;;;7.22;5.43;;;-1.80;99.90;;;;;;4716963;30;20411;-82
2022/11/27 06:17:55;;;;;;;22.48;5.60;;;-1.80;99.90;;;;;;4687038;30;20053;-82
2022/11/27 06:20:23;;;;;;;13.10;5.57;;;-1.80;99.90;;;;;;4701407;30;20041;-82
2022/11/27 06:22:50;;;;;;;7.38;6.75;;;-1.80;99.90;;;;;;4685650;30;20497;-82
2022/11/27 06:25:25;;;;;;;5.25;4.60;;;-1.80;99.90;;;;;;4715439;30;20053;-82
2022/11/27 06:27:53;;;;;;;11.68;4.57;;;-1.70;99.90;;;;;;4705113;30;20492;-82
2022/11/27 06:30:20;;;;;;;59.30;13.57;;;-1.70;99.90;;;;;;4716801;30;20074;-82
2022/11/27 06:32:47;;;;;;;9.50;6.28;;;-1.80;99.90;;;;;;4715276;30;20079;-82
2022/11/27 06:35:15;;;;;;;26.17;5.55;;;-1.80;99.90;;;;;;4716306;30;20492;-82
2022/11/27 06:37:42;;;;;;;57.97;6.20;;;-1.80;99.90;;;;;;4691013;30;20061;-82
2022/11/27 06:40:10;;;;;;;17.20;5.70;;;-1.80;99.90;;;;;;4699286;30;20041;-82
2022/11/27 06:42:37;;;;;;;29.52;5.03;;;-1.80;99.90;;;;;;4701165;30;20060;-82
2022/11/27 06:45:05;;;;;;;5.32;4.43;;;-1.70;99.90;;;;;;4716328;30;20057;-82
2022/11/27 06:47:32;;;;;;;7.95;4.32;;;-1.70;99.90;;;;;;4716017;30;20053;-82
2022/11/27 06:50:00;;;;;;;37.63;6.80;;;-1.60;99.90;;;;;;4701045;30;20057;-82
2022/11/27 06:52:27;;;;;;;5.93;3.78;;;-1.60;99.90;;;;;;4714911;30;20048;-82
2022/11/27 06:55:33;;;;;;;21.65;5.30;;;-1.60;99.90;;;;;;4700883;30;20056;-82
2022/11/27 06:58:00;;;;;;;102.68;8.98;;;-1.70;99.90;;;;;;4674219;30;20057;-82
2022/11/27 07:00:28;;;;;;;42.53;7.70;;;-1.70;99.90;;;;;;4716164;30;20511;-82
2022/11/27 07:02:58;;;;;;;36.20;5.45;;;-1.70;99.90;;;;;;4713264;30;20045;-82
2022/11/27 07:05:25;;;;;;;157.93;16.35;;;-1.70;99.90;;;;;;4716094;30;20056;-82
2022/11/27 07:07:53;;;;;;;13.77;4.70;;;-1.70;99.90;;;;;;4715728;30;20042;-82
2022/11/27 07:10:20;;;;;;;29.25;5.85;;;-1.70;99.90;;;;;;4701396;30;20142;-82
2022/11/27 07:12:48;;;;;;;13.75;4.35;;;-1.70;99.90;;;;;;4716146;30;20801;-82
2022/11/27 07:15:15;;;;;;;7.10;5.20;;;-1.70;99.90;;;;;;4699695;30;20053;-81
2022/11/27 07:17:42;;;;;;;5.28;4.65;;;-1.70;99.90;;;;;;4699297;30;20058;-81
2022/11/27 07:20:10;;;;;;;17.25;4.57;;;-1.70;99.90;;;;;;4713894;30;20060;-81
2022/11/27 07:22:37;;;;;;;5.20;4.70;;;-1.60;99.90;;;;;;4716543;30;20758;-82
2022/11/27 07:25:37;;;;;;;23.70;5.22;;;-1.60;99.90;;;;;;4697477;30;20045;-82
2022/11/27 07:28:04;;;;;;;5.20;3.85;;;-1.60;99.90;;;;;;4708410;30;20059;-82
2022/11/27 07:30:32;;;;;;;22.35;3.20;;;-1.60;99.90;;;;;;4716609;30;20069;-82
2022/11/27 07:32:59;;;;;;;10.23;4.80;;;-1.50;99.90;;;;;;4695713;30;20058;-82
2022/11/27 07:35:26;;;;;;;5.78;4.47;;;-1.60;99.90;;;;;;4682182;30;20054;-82
2022/11/27 07:37:54;;;;;;;7.28;4.30;;;-1.60;99.90;;;;;;4695423;30;20049;-82
2022/11/27 07:40:21;;;;;;;11.55;3.83;;;-1.50;99.90;;;;;;4698541;30;20061;-82
2022/11/27 07:42:49;;;;;;;24.27;4.25;;;-1.50;99.90;;;;;;4700460;30;20065;-82
2022/11/27 07:45:18;;;;;;;5.78;4.88;;;-1.50;99.90;;;;;;4701899;30;20053;-82
2022/11/27 07:47:45;;;;;;;17.10;4.80;;;-1.50;99.90;;;;;;4670970;30;20049;-82
2022/11/27 07:50:15;;;;;;;105.95;10.20;;;-1.50;99.90;;;;;;4701930;30;20489;-82
2022/11/27 07:52:42;;;;;;;18.95;4.50;;;-1.50;99.90;;;;;;4686283;30;20058;-82
2022/11/27 07:55:10;;;;;;;5.72;4.10;;;-1.60;99.90;;;;;;4699928;30;20056;-82
2022/11/27 07:57:38;;;;;;;6.00;4.53;;;-1.50;99.90;;;;;;4686449;30;20442;-81
2022/11/27 08:00:07;;;;;;;10.60;3.83;;;-1.50;99.90;;;;;;4699338;30;20056;-82
2022/11/27 08:02:34;;;;;;;11.13;4.63;;;-1.40;99.90;;;;;;4686394;30;20401;-82
2022/11/27 08:05:01;;;;;;;11.13;4.90;;;-1.30;99.90;;;;;;4703215;30;20068;-81
2022/11/27 08:14:55;;;;;;;15.27;4.28;;;-1.20;99.90;;;;;;5374797;25;20074;-79
2022/11/27 08:17:22;;;;;;;51.20;5.30;;;-1.20;99.90;;;;;;4709882;30;20520;-79
2022/11/27 08:19:50;;;;;;;27.55;5.70;;;-1.20;99.90;;;;;;4715075;30;20049;-79
2022/11/27 08:22:20;;;;;;;19.65;5.03;;;-1.20;99.90;;;;;;4705207;30;20056;-79
2022/11/27 08:24:49;;;;;;;6.07;5.43;;;-1.30;99.90;;;;;;4717933;30;20041;-81
2022/11/27 08:27:16;;;;;;;65.50;7.82;;;-1.10;99.90;;;;;;4688357;30;20057;-81
2022/11/27 08:29:43;;;;;;;32.75;5.47;;;-1.10;99.90;;;;;;4718655;30;20080;-82
2022/11/27 08:32:11;;;;;;;36.53;5.70;;;-1.00;99.90;;;;;;4717800;30;20046;-81
2022/11/27 08:34:38;;;;;;;33.10;5.20;;;-0.90;99.90;;;;;;4689381;30;20076;-81
2022/11/27 08:37:06;;;;;;;35.83;8.02;;;-0.80;99.90;;;;;;4688155;30;20045;-82
2022/11/27 08:39:34;;;;;;;39.75;6.38;;;-0.70;99.90;;;;;;4717290;30;20049;-82
2022/11/27 08:42:01;;;;;;;40.00;6.20;;;-0.70;99.90;;;;;;4715625;30;20068;-82
2022/11/27 08:44:29;;;;;;;71.03;10.18;;;-0.70;99.90;;;;;;4701455;30;20092;-82
2022/11/27 08:46:56;;;;;;;52.00;12.45;;;-0.70;99.90;;;;;;4718074;30;20072;-82
2022/11/27 08:49:23;;;;;;;45.22;7.65;;;-0.70;99.90;;;;;;4717973;30;20049;-82
2022/11/27 08:51:51;;;;;;;43.80;10.48;;;-0.60;99.90;;;;;;4706584;30;20053;-81
2022/11/27 08:54:58;;;;;;;85.30;9.07;;;-0.60;99.90;;;;;;4716545;30;20523;-81
2022/11/27 08:57:25;;;;;;;153.82;16.45;;;-0.50;99.90;;;;;;4689332;30;20057;-82
2022/11/27 08:59:52;;;;;;;68.78;8.63;;;-0.50;99.90;;;;;;4702551;30;20045;-82
2022/11/27 09:02:19;;;;;;;59.33;8.50;;;-0.50;99.90;;;;;;4710074;30;20058;-81
2022/11/27 09:04:47;;;;;;;37.72;15.10;;;-0.50;99.90;;;;;;4700381;30;20065;-83
2022/11/27 09:07:15;;;;;;;72.70;14.27;;;-0.60;99.90;;;;;;4712535;30;20067;-83
2022/11/27 09:09:43;;;;;;;64.35;7.78;;;-0.60;99.90;;;;;;4713493;30;20396;-82
2022/11/27 09:12:10;;;;;;;40.58;6.65;;;-0.60;99.90;;;;;;4711908;30;20071;-84
2022/11/27 09:14:37;;;;;;;57.90;6.78;;;-0.50;99.90;;;;;;4711609;30;20053;-82
2022/11/27 09:17:05;;;;;;;55.03;6.93;;;-0.50;99.90;;;;;;4697077;30;20787;-82
2022/11/27 09:19:32;;;;;;;56.92;5.45;;;-0.30;99.90;;;;;;4697781;30;20050;-83
2022/11/27 09:22:00;;;;;;;70.47;7.03;;;-0.30;99.90;;;;;;4702080;30;20407;-84
2022/11/27 09:24:37;;;;;;;51.35;6.63;;;-0.30;99.90;;;;;;4702271;30;20050;-82
2022/11/27 09:27:05;;;;;;;33.53;4.88;;;-0.30;99.90;;;;;;4696353;30;20060;-83
2022/11/27 09:29:34;;;;;;;27.58;5.28;;;-0.40;99.90;;;;;;4696524;30;20069;-84
2022/11/27 09:32:01;;;;;;;27.08;5.80;;;-0.30;99.90;;;;;;4691371;30;20413;-83
2022/11/27 09:34:31;;;;;;;38.25;5.55;;;-0.30;99.90;;;;;;4695795;30;20155;-85
2022/11/27 09:37:04;;;;;;;22.70;4.90;;;-0.30;99.90;;;;;;4682517;30;20054;-84
2022/11/27 09:39:32;;;;;;;69.28;7.28;;;-0.40;99.90;;;;;;4682555;30;20049;-82
2022/11/27 09:42:11;;;;;;;37.85;5.90;;;-0.40;99.90;;;;;;4681722;30;20058;-82
2022/11/27 09:44:48;;;;;;;27.27;5.15;;;-0.30;99.90;;;;;;4681265;30;20075;-82
2022/11/27 09:47:40;;;;;;;21.35;4.63;;;-0.20;99.90;;;;;;4666596;30;20073;-82
2022/11/27 09:50:23;;;;;;;41.92;5.38;;;-0.10;99.90;;;;;;4678685;30;20447;-82
2022/11/27 09:53:04;;;;;;;61.83;9.40;;;0.00;99.90;;;;;;4682387;30;20065;-82
2022/11/27 09:56:13;;;;;;;10.48;4.07;;;0.00;99.90;;;;;;4681587;30;20049;-82
2022/11/27 09:58:44;;;;;;;16.08;5.00;;;0.00;99.90;;;;;;4689381;30;20050;-82
2022/11/27 10:01:15;;;;;;;14.43;7.13;;;0.00;99.90;;;;;;4692534;30;20069;-82
2022/11/27 10:03:49;;;;;;;108.47;12.55;;;0.00;99.90;;;;;;4668451;30;20058;-84
2022/11/27 10:06:27;;;;;;;78.32;8.93;;;0.20;99.90;;;;;;4695819;30;20066;-82
2022/11/27 10:09:32;;;;;;;57.40;6.13;;;0.20;99.90;;;;;;4694242;30;20058;-82
2022/11/27 10:12:35;;;;;;;12.35;8.20;;;0.20;99.90;;;;;;4689603;30;20502;-82
2022/11/27 10:15:18;;;;;;;45.50;6.63;;;0.10;99.90;;;;;;4680139;30;20087;-82
2022/11/27 10:18:00;;;;;;;20.10;4.88;;;0.20;99.90;;;;;;4682687;30;20060;-82
2022/11/27 10:20:43;;;;;;;86.15;8.68;;;0.20;99.90;;;;;;4698329;30;20049;-82
2022/11/27 10:23:40;;;;;;;21.92;5.07;;;0.20;99.90;;;;;;4699586;30;20050;-82
2022/11/27 10:26:18;;;;;;;30.98;5.35;;;0.20;99.90;;;;;;4684979;30;20053;-82
2022/11/27 10:29:03;;;;;;;23.25;4.80;;;0.30;99.90;;;;;;4684547;30;20058;-82
2022/11/27 10:31:41;;;;;;;36.78;5.68;;;0.30;99.90;;;;;;4698896;30;20053;-82
2022/11/27 10:34:39;;;;;;;2.03;1.90;;;0.30;99.90;;;;;;4710619;30;20057;-82
2022/11/27 10:37:19;;;;;;;13.10;4.72;;;0.20;99.90;;;;;;4716709;30;20053;-82
2022/11/27 10:39:55;;;;;;;26.80;5.25;;;0.20;99.90;;;;;;4692469;30;20068;-82
2022/11/27 10:42:34;;;;;;;16.55;5.93;;;0.30;99.90;;;;;;4711317;30;20405;-81
2022/11/27 10:45:28;;;;;;;20.67;5.70;;;0.30;99.90;;;;;;4699388;30;20045;-82
2022/11/27 10:47:56;;;;;;;23.45;5.63;;;0.50;99.90;;;;;;4701025;30;20374;-81
2022/11/27 10:50:23;;;;;;;10.45;4.63;;;0.60;99.90;;;;;;4699615;30;20049;-82
2022/11/27 10:52:58;;;;;;;2.95;2.17;;;0.60;99.90;;;;;;4684926;30;20060;-83
2022/11/27 10:56:16;;;;;;;98.00;12.98;;;0.50;99.90;;;;;;4683045;30;20497;-83
2022/11/27 10:58:53;;;;;;;17.17;6.30;;;0.50;99.90;;;;;;4667474;30;20058;-82
2022/11/27 11:01:23;;;;;;;7.65;3.95;;;0.50;99.90;;;;;;4683683;30;20065;-81
2022/11/27 11:04:04;;;;;;;45.83;5.95;;;0.50;99.90;;;;;;4696039;30;20473;-81
2022/11/27 11:06:50;;;;;;;9.82;5.82;;;0.70;99.90;;;;;;4683710;30;20064;-82
2022/11/27 11:09:24;;;;;;;6.45;3.40;;;0.90;99.90;;;;;;4697773;30;20050;-83
2022/11/27 11:11:52;;;;;;;5.47;4.63;;;0.90;99.90;;;;;;4700744;30;20515;-82
2022/11/27 11:14:25;;;;;;;8.82;6.07;;;0.80;99.90;;;;;;4684268;30;20049;-83
2022/11/27 11:16:53;;;;;;;8.75;6.43;;;0.80;99.90;;;;;;4697235;30;20061;-82
2022/11/27 11:19:32;;;;;;;12.20;6.25;;;0.80;99.90;;;;;;4686330;30;20053;-84
2022/11/27 11:22:04;;;;;;;14.75;6.72;;;1.00;99.90;;;;;;4694437;30;20511;-85
2022/11/27 11:24:48;;;;;;;9.13;7.85;;;1.10;99.90;;;;;;4673651;30;20058;-84
2022/11/27 11:27:25;;;;;;;7.55;6.18;;;1.20;99.90;;;;;;4676335;30;20046;-83
2022/11/27 11:29:57;;;;;;;7.13;5.32;;;1.30;99.90;;;;;;4672951;30;20065;-85
2022/11/27 11:32:28;;;;;;;6.25;5.53;;;1.30;99.90;;;;;;4655468;30;20572;-84
2022/11/27 11:35:23;;;;;;;12.45;7.88;;;1.20;99.90;;;;;;4674359;30;20057;-85
2022/11/27 11:37:51;;;;;;;15.32;6.72;;;;;;;;;;4663666;30;20054;-85
2022/11/27 11:40:19;;;;;;;9.82;6.32;;;;;;;;;;4700494;30;20081;-85
2022/11/27 11:42:56;;;;;;;25.30;7.10;;;;;;;;;;4701183;30;20045;-84
2022/11/27 11:45:25;;;;;;;26.95;8.38;;;;;;;;;;4700413;30;20493;-85
2022/11/27 11:48:00;;;;;;;15.82;6.75;;;;;;;;;;4700448;30;20429;-85
2022/11/27 11:50:28;;;;;;;18.40;7.25;;;;;;;;;;4702683;30;20077;-85
2022/11/27 11:53:01;;;;;;;9.02;7.57;;;;;;;;;;4686091;30;20054;-84
2022/11/27 11:55:39;;;;;;;9.95;6.63;;;;;;;;;;4702017;30;20061;-84
2022/11/27 11:58:26;;;;;;;12.38;7.20;;;;;;;;;;4701705;30;20060;-84
2022/11/27 12:01:00;;;;;;;10.35;7.25;;;;;;;;;;4669142;30;20107;-84
2022/11/27 12:04:02;;;;;;;7.35;5.45;;;;;;;;;;4668473;30;20718;-84
2022/11/27 12:06:36;;;;;;;4.25;3.72;;;;;;;;;;4669120;30;20068;-84
2022/11/27 12:09:15;;;;;;;6.70;5.57;;;;;;;;;;4671650;30;20053;-84
2022/11/27 12:11:46;;;;;;;8.13;5.47;;;;;;;;;;4686245;30;20046;-84
2022/11/27 12:14:16;;;;;;;11.38;8.15;;;;;;;;;;4672066;30;20536;-84
2022/11/27 12:16:47;;;;;;;6.83;5.17;;;;;;;;;;4685912;30;20061;-86
2022/11/27 12:19:33;;;;;;;11.73;7.25;;;;;;;;;;4685309;30;20064;-84
2022/11/27 12:22:14;;;;;;;9.85;8.38;;;;;;;;;;4685490;30;20060;-83
2022/11/27 12:25:14;;;;;;;15.00;8.40;;;;;;;;;;4677492;30;20057;-83
2022/11/27 12:28:02;;;;;;;8.02;6.45;;;;;;;;;;4668603;30;20050;-84
2022/11/27 12:30:48;;;;;;;10.73;6.97;;;;;;;;;;4672820;30;20074;-82
2022/11/27 12:33:25;;;;;;;7.90;6.07;;;;;;;;;;4656495;30;21244;-82
2022/11/27 12:36:08;;;;;;;8.88;6.80;;;;;;;;;;4669516;30;20048;-82
2022/11/27 12:38:50;;;;;;;7.22;5.10;;;;;;;;;;4670340;30;20066;-82
2022/11/27 12:41:21;;;;;;;7.93;5.78;;;;;;;;;;4683641;30;20061;-82
2022/11/27 12:43:58;;;;;;;9.07;5.93;;;;;;;;;;4681464;30;20085;-82
2022/11/27 12:46:36;;;;;;;7.43;5.88;;;;;;;;;;4680381;30;20057;-82
2022/11/27 12:49:13;;;;;;;11.93;6.88;;;;;;;;;;4700704;30;20069;-82
2022/11/27 12:51:48;;;;;;;11.65;5.90;;;;;;;;;;4685375;30;20057;-82
2022/11/27 12:54:48;;;;;;;13.55;6.65;;;;;;;;;;4699951;30;20493;-82
2022/11/27 12:57:27;;;;;;;10.15;7.53;;;;;;;;;;4685387;30;20054;-82
2022/11/27 12:59:57;;;;;;;9.80;6.28;;;;;;;;;;4699688;30;20042;-78
2022/11/27 13:02:45;;;;;;;8.93;6.40;;;;;;;;;;4693865;30;20061;-82
2022/11/27 13:05:19;;;;;;;13.73;6.88;;;;;;;;;;4700215;30;20046;-82
2022/11/27 13:07:58;;;;;;;10.05;7.50;;;;;;;;;;4685225;30;20054;-83
2022/11/27 13:10:30;;;;;;;11.68;6.50;;;;;;;;;;4699239;30;20053;-83
2022/11/27 13:12:58;;;;;;;;;;;;;;;;;;4684448;30;20054;-83
2022/11/27 13:15:29;;;;;;;7.25;6.13;;;;;;;;;;4698221;30;19931;-84
2022/11/27 13:18:02;;;;;;;11.73;7.32;;;;;;;;;;4693032;30;20069;-83
2022/11/27 13:20:34;;;;;;;7.30;4.82;;;;;;;;;;4656235;30;20054;-83
2022/11/27 13:23:01;;;;;;;9.35;6.70;;;;;;;;;;4683789;30;20064;-83
2022/11/27 13:26:01;;;;;;;13.00;6.22;;;;;;;;;;4684257;30;20501;-83
2022/11/27 13:28:28;;;;;;;7.60;6.82;;;;;;;;;;4699920;30;20052;-85
2022/11/27 13:30:58;;;;;;;13.95;8.65;;;;;;;;;;4700745;30;20057;-83
2022/11/27 13:33:37;;;;;;;6.32;4.78;;;;;;;;;;4684546;30;20054;-83
2022/11/27 13:36:07;;;;;;;35.92;8.20;;;;;;;;;;4670733;30;20049;-83
2022/11/27 13:38:37;;;;;;;30.88;6.43;;;;;;;;;;4671079;30;20065;-83
2022/11/27 13:41:05;;;;;;;16.92;7.70;;;;;;;;;;4669695;30;20064;-82
2022/11/27 13:43:43;;;;;;;15.93;9.55;;;;;;;;;;4700172;30;20057;-83